Time;durP1;ratioP1;P1;durP2;ratioP2;P2;SDS_P1;SDS_P2;PMS_P1;PMS_P2;Temp;Humidity;BMP_temperature;BMP_pressure;BME280_temperature;BME280_humidity;BME280_pressure;Samples;Min_cycle;Max_cycle;Signal;HPM_P1;HPM_P2
2022/01/01 00:02:24;;;;;;;9.98;1.75;;;19.90;64.20;;;;;;5123796;27;20141;-60
2022/01/01 00:04:50;;;;;;;11.75;1.55;;;19.90;64.80;;;;;;5091686;28;20075;-60
2022/01/01 00:07:17;;;;;;;4.70;1.60;;;19.80;65.10;;;;;;5075597;28;20111;-60
2022/01/01 00:09:44;;;;;;;10.30;2.13;;;19.70;65.40;;;;;;5092897;28;20071;-58
2022/01/01 00:12:13;;;;;;;8.65;1.48;;;19.60;65.90;;;;;;5091767;28;20112;-58
2022/01/01 00:14:40;;;;;;;6.03;1.35;;;19.60;66.60;;;;;;5089788;28;20088;-61
2022/01/01 00:17:08;;;;;;;5.57;1.95;;;19.60;66.80;;;;;;5091607;28;20451;-57
2022/01/01 00:19:34;;;;;;;7.18;1.23;;;19.50;67.00;;;;;;5092962;28;20076;-63
2022/01/01 00:22:02;;;;;;;3.70;1.05;;;19.40;66.70;;;;;;5092020;28;20179;-60
2022/01/01 00:24:28;;;;;;;7.43;1.20;;;19.30;67.00;;;;;;5092155;28;20080;-61
2022/01/01 00:26:55;;;;;;;4.82;1.20;;;19.30;67.60;;;;;;5091292;28;20680;-61
2022/01/01 00:29:21;;;;;;;5.22;1.10;;;19.20;68.10;;;;;;5092509;28;20079;-59
2022/01/01 00:31:48;;;;;;;7.10;1.30;;;19.10;68.40;;;;;;5091425;28;20072;-63
2022/01/01 00:34:14;;;;;;;4.75;1.10;;;19.00;68.90;;;;;;5093425;28;20111;-61
2022/01/01 00:36:41;;;;;;;8.73;1.35;;;18.90;69.10;;;;;;5091113;28;20180;-62
2022/01/01 00:39:07;;;;;;;6.50;1.23;;;18.90;69.30;;;;;;5090068;28;20072;-59
2022/01/01 00:41:34;;;;;;;4.55;1.20;;;18.80;69.10;;;;;;5092131;28;20068;-59
2022/01/01 00:43:59;;;;;;;;;;;18.80;69.40;;;;;;5093049;28;20492;-60
2022/01/01 00:46:26;;;;;;;8.25;1.80;;;18.80;69.00;;;;;;5089594;28;19997;-60
2022/01/01 00:48:53;;;;;;;4.20;1.80;;;18.70;69.10;;;;;;5091936;28;20100;-61
2022/01/01 00:51:24;;;;;;;11.23;2.33;;;18.70;68.80;;;;;;5074029;28;20087;-61
2022/01/01 00:53:50;;;;;;;6.07;1.40;;;18.70;68.70;;;;;;5090847;28;20079;-63
2022/01/01 00:56:17;;;;;;;4.32;1.08;;;18.70;66.00;;;;;;5092386;28;20451;-58
2022/01/01 00:58:43;;;;;;;6.90;1.30;;;18.70;65.20;;;;;;5093155;28;20087;-60
2022/01/01 01:01:09;;;;;;;;;;;18.70;64.60;;;;;;5123173;27;20179;-59
2022/01/01 01:03:36;;;;;;;11.50;1.92;;;18.70;64.70;;;;;;5092912;28;20128;-61
2022/01/01 01:06:02;;;;;;;2.95;1.30;;;18.60;64.50;;;;;;5092218;28;20125;-59
2022/01/01 01:08:30;;;;;;;5.97;1.35;;;18.60;65.20;;;;;;5091400;28;20092;-60
2022/01/01 01:10:57;;;;;;;7.57;1.30;;;18.50;65.10;;;;;;5093531;28;20158;-60
2022/01/01 01:13:26;;;;;;;5.75;1.42;;;18.50;65.60;;;;;;5092604;28;20132;-60
2022/01/01 01:15:53;;;;;;;1.95;1.30;;;18.40;66.50;;;;;;5092251;28;20088;-61
2022/01/01 01:18:19;;;;;;;4.03;1.52;;;18.40;67.20;;;;;;5090926;28;20076;-62
2022/01/01 01:20:46;;;;;;;3.63;1.30;;;18.30;68.10;;;;;;5092934;28;20103;-62
2022/01/01 01:23:12;;;;;;;2.63;1.13;;;18.20;69.50;;;;;;5093089;28;20088;-61
2022/01/01 01:25:40;;;;;;;;;;;18.10;70.50;;;;;;5094630;28;20090;-64
2022/01/01 01:28:09;;;;;;;3.60;1.33;;;18.00;71.10;;;;;;5093746;28;19984;-61
2022/01/01 01:30:37;;;;;;;4.63;1.40;;;17.90;71.50;;;;;;5074605;28;20076;-63
2022/01/01 01:33:05;;;;;;;8.32;1.40;;;17.90;72.00;;;;;;5073667;28;20167;-61
2022/01/01 01:35:32;;;;;;;3.33;1.60;;;17.80;72.40;;;;;;5091333;28;20554;-59
2022/01/01 01:37:59;;;;;;;4.35;1.33;;;17.80;72.50;;;;;;5074605;28;20081;-62
2022/01/01 01:40:27;;;;;;;4.90;1.92;;;17.70;72.50;;;;;;5089033;28;20076;-63
2022/01/01 01:42:54;;;;;;;2.72;1.17;;;17.70;72.80;;;;;;5074324;28;20095;-61
2022/01/01 01:45:22;;;;;;;4.65;1.50;;;17.70;72.70;;;;;;5075605;28;20126;-61
2022/01/01 01:47:50;;;;;;;5.68;1.50;;;17.60;73.00;;;;;;5089528;28;20135;-61
2022/01/01 01:50:19;;;;;;;5.07;1.70;;;17.60;73.20;;;;;;5092000;28;20073;-63
2022/01/01 01:52:50;;;;;;;2.30;1.27;;;17.60;73.30;;;;;;5091924;28;20090;-61
2022/01/01 01:55:16;;;;;;;3.88;1.70;;;17.60;72.90;;;;;;5091794;28;20111;-61
2022/01/01 01:57:43;;;;;;;7.32;2.13;;;17.60;72.10;;;;;;5093302;28;20156;-61
2022/01/01 02:00:51;;;;;;;12.30;2.03;;;17.60;71.30;;;;;;5090571;28;20072;-61
2022/01/01 02:03:16;;;;;;;4.35;1.90;;;17.70;71.30;;;;;;5090849;28;20095;-63
2022/01/01 02:05:45;;;;;;;5.72;1.60;;;17.60;70.80;;;;;;5086122;28;20440;-60
2022/01/01 02:08:12;;;;;;;4.20;1.25;;;17.70;67.80;;;;;;5087481;28;20068;-62
2022/01/01 02:10:40;;;;;;;7.13;1.45;;;17.80;67.10;;;;;;5088781;28;20069;-65
2022/01/01 02:13:15;;;;;;;2.53;1.20;;;17.80;67.00;;;;;;5087944;28;20143;-61
2022/01/01 02:18:12;;;;;;;1.75;0.90;;;17.80;67.20;;;;;;5089669;28;20547;-60
2022/01/01 02:20:39;;;;;;;3.00;1.50;;;17.80;67.70;;;;;;5087402;28;20125;-60
2022/01/01 02:23:06;;;;;;;3.10;2.20;;;17.70;68.40;;;;;;5087235;28;20088;-60
2022/01/01 02:25:33;;;;;;;14.63;10.38;;;17.60;69.00;;;;;;5088871;28;20076;-62
2022/01/01 02:27:59;;;;;;;4.18;1.60;;;17.50;69.50;;;;;;5088388;28;20075;-60
2022/01/01 02:30:28;;;;;;;3.75;1.45;;;17.50;69.90;;;;;;5089058;28;20091;-59
2022/01/01 02:32:54;;;;;;;4.15;1.35;;;17.40;70.20;;;;;;5087801;28;20068;-64
2022/01/01 02:35:21;;;;;;;5.05;1.65;;;17.40;70.60;;;;;;5088656;28;20130;-60
2022/01/01 02:37:47;;;;;;;5.15;1.85;;;17.30;71.10;;;;;;5088451;28;20075;-63
2022/01/01 02:40:16;;;;;;;3.03;1.60;;;17.30;71.60;;;;;;5088655;28;20080;-61
2022/01/01 02:42:43;;;;;;;4.63;2.33;;;17.20;72.00;;;;;;5087887;28;20622;-62
2022/01/01 02:45:11;;;;;;;3.63;1.50;;;17.20;72.10;;;;;;5087843;28;20069;-62
2022/01/01 02:47:38;;;;;;;6.10;3.20;;;17.10;72.10;;;;;;5088910;28;20523;-61
2022/01/01 02:50:05;;;;;;;7.07;1.77;;;17.10;71.70;;;;;;5088266;28;20282;-60
2022/01/01 02:52:31;;;;;;;3.88;1.35;;;17.10;71.70;;;;;;5088220;28;20527;-63
2022/01/01 02:54:58;;;;;;;7.97;1.70;;;17.10;71.30;;;;;;5088457;28;20087;-60
2022/01/01 02:57:24;;;;;;;;;;;17.10;71.20;;;;;;5089192;28;20092;-60
2022/01/01 02:59:50;;;;;;;5.55;1.42;;;17.10;71.10;;;;;;5123125;28;19990;-60
2022/01/01 03:02:17;;;;;;;2.67;1.25;;;17.20;71.20;;;;;;5088859;28;20183;-60
2022/01/01 03:04:43;;;;;;;8.02;2.10;;;17.20;71.10;;;;;;5089598;28;20073;-61
2022/01/01 03:07:09;;;;;;;;;;;17.20;71.20;;;;;;5092752;28;20089;-62
2022/01/01 03:09:36;;;;;;;4.47;1.30;;;17.10;71.40;;;;;;5090916;28;19963;-60
2022/01/01 03:12:06;;;;;;;;;;;17.10;72.10;;;;;;5093425;28;20189;-62
2022/01/01 03:14:33;;;;;;;6.30;1.60;;;17.00;72.90;;;;;;5092951;28;19983;-63
2022/01/01 03:17:00;;;;;;;4.20;1.55;;;16.90;73.60;;;;;;5093732;28;20748;-63
2022/01/01 03:19:26;;;;;;;3.55;2.13;;;16.90;74.30;;;;;;5092246;28;20137;-63
2022/01/01 03:21:53;;;;;;;8.10;3.58;;;16.80;74.90;;;;;;5092236;28;20163;-63
2022/01/01 03:24:19;;;;;;;3.30;1.45;;;16.80;75.50;;;;;;5092430;28;20079;-62
2022/01/01 03:26:46;;;;;;;3.40;0.70;;;16.70;75.70;;;;;;5094215;28;20823;-60
2022/01/01 03:29:12;;;;;;;1.98;0.95;;;16.60;76.30;;;;;;5091298;28;20680;-61
2022/01/01 03:31:38;;;;;;;;;;;16.50;77.30;;;;;;5091549;28;20115;-62
2022/01/01 03:34:05;;;;;;;2.00;0.88;;;16.50;78.10;;;;;;5092048;28;19961;-60
2022/01/01 03:36:31;;;;;;;5.22;1.65;;;16.50;78.60;;;;;;5092046;28;20075;-63
2022/01/01 03:38:59;;;;;;;;;;;16.40;79.00;;;;;;5091033;28;20518;-59
2022/01/01 03:41:26;;;;;;;8.60;3.10;;;16.40;79.20;;;;;;5091083;28;19956;-61
2022/01/01 03:43:53;;;;;;;8.82;3.53;;;16.30;79.60;;;;;;5092283;28;20180;-63
2022/01/01 03:46:19;;;;;;;11.70;4.53;;;16.30;80.30;;;;;;5092176;28;20065;-61
2022/01/01 03:48:45;;;;;;;8.88;2.20;;;16.30;80.50;;;;;;5090749;28;20498;-62
2022/01/01 03:51:12;;;;;;;8.95;1.65;;;16.30;81.50;;;;;;5092449;28;20143;-62
2022/01/01 03:53:38;;;;;;;9.43;2.35;;;16.20;81.40;;;;;;5091567;28;20073;-61
2022/01/01 03:56:05;;;;;;;;;;;16.00;81.50;;;;;;5075068;28;20079;-64
2022/01/01 03:58:31;;;;;;;12.02;4.00;;;15.90;82.10;;;;;;5092502;28;20016;-63
2022/01/01 04:00:57;;;;;;;;;;;15.80;83.30;;;;;;5091065;28;20141;-60
2022/01/01 04:03:23;;;;;;;15.13;4.15;;;15.80;84.20;;;;;;5092175;28;20028;-61
2022/01/01 04:05:49;;;;;;;;;;;15.80;84.60;;;;;;5090348;28;20428;-62
2022/01/01 04:08:16;;;;;;;13.10;6.00;;;15.80;86.50;;;;;;5089115;28;20021;-62
2022/01/01 04:10:42;;;;;;;26.08;13.82;;;15.70;89.00;;;;;;5090999;28;20227;-58
2022/01/01 04:13:10;;;;;;;17.08;9.27;;;15.70;90.40;;;;;;5089428;28;20120;-64
2022/01/01 04:15:38;;;;;;;23.65;11.15;;;15.60;91.30;;;;;;5090291;28;20080;-63
2022/01/01 04:18:13;;;;;;;21.90;10.15;;;15.50;91.20;;;;;;5090142;28;20077;-61
2022/01/01 04:20:44;;;;;;;24.55;10.95;;;15.50;91.80;;;;;;5089674;28;20105;-58
2022/01/01 04:23:11;;;;;;;16.90;9.60;;;15.50;92.10;;;;;;5089070;28;20532;-56
2022/01/01 04:25:38;;;;;;;37.55;17.88;;;15.40;91.80;;;;;;5091273;28;20084;-62
2022/01/01 04:28:05;;;;;;;29.27;18.90;;;15.40;96.60;;;;;;5073795;28;20145;-59
2022/01/01 04:30:32;;;;;;;35.35;21.60;;;15.40;99.70;;;;;;5091339;28;20068;-61
2022/01/01 04:32:59;;;;;;;31.52;20.48;;;15.40;99.90;;;;;;5090452;28;20126;-59
2022/01/01 04:35:26;;;;;;;42.38;28.95;;;15.40;99.90;;;;;;5090893;28;20501;-60
2022/01/01 04:37:52;;;;;;;31.27;20.63;;;15.50;99.90;;;;;;5089282;28;20125;-59
2022/01/01 04:40:19;;;;;;;19.65;13.27;;;15.40;99.90;;;;;;5090426;28;20073;-61
2022/01/01 04:42:45;;;;;;;6.88;3.70;;;15.30;99.90;;;;;;5087747;28;20179;-60
2022/01/01 04:45:12;;;;;;;;;;;15.50;96.00;;;;;;5090776;28;20524;-62
2022/01/01 04:47:38;;;;;;;17.42;10.80;;;15.80;94.50;;;;;;5090083;28;19957;-60
2022/01/01 04:50:06;;;;;;;32.10;21.63;;;15.80;96.90;;;;;;5088913;28;20079;-62
2022/01/01 04:52:32;;;;;;;16.80;10.05;;;15.90;99.90;;;;;;5089521;28;20088;-61
2022/01/01 04:54:59;;;;;;;4.93;2.65;;;15.80;99.90;;;;;;5090516;28;20079;-61
2022/01/01 04:57:30;;;;;;;2.72;1.80;;;15.90;91.60;;;;;;5088336;28;20077;-64
2022/01/01 05:00:00;;;;;;;14.13;6.47;;;16.00;86.60;;;;;;5089486;28;20080;-62
2022/01/01 05:02:27;;;;;;;12.15;7.10;;;16.20;91.00;;;;;;5087481;28;20103;-63
2022/01/01 05:04:54;;;;;;;11.98;7.28;;;16.10;94.80;;;;;;5089557;28;20101;-62
2022/01/01 05:07:21;;;;;;;21.48;13.27;;;16.10;94.10;;;;;;5090072;28;20065;-61
2022/01/01 05:09:47;;;;;;;33.17;21.52;;;16.10;98.00;;;;;;5088694;28;20065;-65
2022/01/01 05:12:13;;;;;;;28.83;21.35;;;16.00;99.90;;;;;;5088976;28;20117;-62
2022/01/01 05:14:40;;;;;;;;;;;15.80;99.90;;;;;;5089876;28;20091;-64
2022/01/01 05:17:06;;;;;;;34.88;22.70;;;15.70;99.90;;;;;;5090620;28;19956;-64
2022/01/01 05:19:32;;;;;;;;;;;15.50;99.90;;;;;;5088113;28;20076;-60
2022/01/01 05:21:58;;;;;;;31.38;23.85;;;15.50;99.90;;;;;;5087741;28;20005;-60
2022/01/01 05:24:25;;;;;;;37.08;25.48;;;15.50;99.90;;;;;;5090963;28;20073;-64
2022/01/01 05:26:51;;;;;;;;;;;15.40;99.90;;;;;;5089358;28;20086;-64
2022/01/01 05:29:17;;;;;;;38.65;27.40;;;15.30;99.90;;;;;;5087340;28;20483;-66
2022/01/01 05:31:43;;;;;;;;;;;15.30;99.90;;;;;;5089334;28;20076;-62
2022/01/01 05:34:10;;;;;;;38.85;26.23;;;15.30;99.90;;;;;;5088441;28;20051;-62
2022/01/01 05:36:36;;;;;;;;;;;15.20;99.90;;;;;;5088050;28;20247;-64
2022/01/01 05:39:02;;;;;;;30.08;21.83;;;15.20;99.90;;;;;;5087954;28;20410;-62
2022/01/01 05:41:29;;;;;;;30.35;22.33;;;15.10;99.90;;;;;;5088669;28;20096;-65
2022/01/01 05:43:55;;;;;;;29.40;21.00;;;15.10;99.90;;;;;;5071432;28;20092;-63
2022/01/01 05:46:21;;;;;;;;;;;15.00;99.90;;;;;;5088666;28;20164;-64
2022/01/01 05:48:48;;;;;;;33.60;23.20;;;15.00;99.90;;;;;;5089382;28;19979;-64
2022/01/01 05:51:14;;;;;;;36.63;25.33;;;14.90;99.90;;;;;;5086989;28;20064;-64
2022/01/01 05:53:40;;;;;;;;;;;14.80;99.90;;;;;;5087098;28;20077;-61
2022/01/01 05:56:06;;;;;;;49.90;27.50;;;14.70;99.90;;;;;;5089854;28;20019;-64
2022/01/01 05:58:33;;;;;;;;;;;14.60;99.90;;;;;;5089378;28;20513;-64
2022/01/01 06:00:59;;;;;;;23.83;15.13;;;14.60;99.90;;;;;;5088708;28;19965;-63
2022/01/01 06:03:25;;;;;;;;;;;14.60;99.90;;;;;;5087733;28;20152;-63
2022/01/01 06:05:52;;;;;;;18.75;11.32;;;14.60;99.90;;;;;;5088544;28;19957;-65
2022/01/01 06:08:19;;;;;;;16.42;10.65;;;14.60;99.90;;;;;;5088509;28;20091;-63
2022/01/01 06:10:45;;;;;;;15.10;8.48;;;14.50;99.90;;;;;;5088265;28;20072;-61
2022/01/01 06:13:11;;;;;;;;;;;14.50;99.90;;;;;;5088766;28;20133;-63
2022/01/01 06:15:38;;;;;;;13.85;5.07;;;14.50;99.30;;;;;;5087286;28;19957;-63
2022/01/01 06:18:04;;;;;;;12.23;3.95;;;14.60;97.30;;;;;;5088539;28;20097;-66
2022/01/01 06:20:30;;;;;;;;;;;14.60;94.10;;;;;;5088032;28;20080;-62
2022/01/01 06:22:56;;;;;;;12.88;3.55;;;14.70;91.80;;;;;;5086381;28;19972;-62
2022/01/01 06:25:22;;;;;;;;;;;14.70;91.70;;;;;;5087782;28;20100;-61
2022/01/01 06:27:49;;;;;;;11.63;2.20;;;14.70;90.70;;;;;;5089297;28;19957;-62
2022/01/01 06:30:15;;;;;;;8.50;2.15;;;14.70;91.20;;;;;;5087197;28;20076;-58
2022/01/01 06:32:41;;;;;;;15.75;2.40;;;14.70;90.20;;;;;;5089608;28;20080;-62
2022/01/01 06:35:08;;;;;;;;;;;14.60;90.80;;;;;;5089969;28;20511;-64
2022/01/01 06:37:34;;;;;;;12.70;2.85;;;14.50;90.80;;;;;;5087428;28;20005;-62
2022/01/01 06:40:00;;;;;;;20.42;4.10;;;14.60;88.80;;;;;;5089779;28;20073;-62
2022/01/01 06:42:27;;;;;;;19.30;3.28;;;14.60;79.00;;;;;;5089440;28;20100;-62
2022/01/01 06:44:53;;;;;;;;;;;14.80;75.10;;;;;;5075410;28;20531;-59
2022/01/01 06:47:19;;;;;;;25.10;2.50;;;15.00;73.00;;;;;;5093655;28;20331;-57
2022/01/01 06:49:45;;;;;;;;;;;15.10;72.80;;;;;;5091654;28;20446;-62
2022/01/01 06:52:11;;;;;;;28.38;4.32;;;15.10;73.70;;;;;;5091005;28;20002;-63
2022/01/01 06:54:37;;;;;;;;;;;15.10;73.50;;;;;;5091421;28;20093;-62
2022/01/01 06:57:04;;;;;;;17.83;2.45;;;15.10;73.70;;;;;;5092964;28;19965;-62
2022/01/01 06:59:31;;;;;;;25.38;2.63;;;15.10;74.00;;;;;;5092639;28;20084;-62
2022/01/01 07:01:57;;;;;;;;;;;15.00;75.40;;;;;;5091097;28;20108;-61
2022/01/01 07:04:23;;;;;;;19.85;2.55;;;14.90;75.30;;;;;;5077682;28;19956;-61
2022/01/01 07:06:49;;;;;;;24.23;3.80;;;14.90;75.60;;;;;;5090718;28;20095;-60
2022/01/01 07:09:15;;;;;;;;;;;14.90;76.20;;;;;;5095344;28;20486;-60
2022/01/01 07:11:42;;;;;;;19.70;6.22;;;14.80;76.70;;;;;;5087978;28;19957;-60
2022/01/01 07:14:11;;;;;;;18.63;2.60;;;14.80;77.20;;;;;;5069073;28;20072;-60
2022/01/01 07:16:37;;;;;;;13.70;3.50;;;14.80;76.80;;;;;;5078673;28;20130;-61
2022/01/01 07:19:04;;;;;;;;;;;14.70;77.70;;;;;;5091710;28;20416;-60
2022/01/01 07:21:30;;;;;;;20.73;3.65;;;14.70;78.50;;;;;;5092028;28;20322;-58
2022/01/01 07:23:57;;;;;;;18.42;4.03;;;14.60;78.60;;;;;;5112320;28;20090;-62
2022/01/01 07:26:23;;;;;;;14.32;3.58;;;14.50;79.00;;;;;;5116157;28;20596;-65
2022/01/01 07:28:49;;;;;;;;;;;14.50;79.40;;;;;;5095469;28;20211;-64
2022/01/01 07:31:17;;;;;;;14.57;2.60;;;14.40;79.30;;;;;;5092167;28;20023;-66
2022/01/01 07:33:44;;;;;;;20.23;3.47;;;14.40;79.10;;;;;;5111102;28;20159;-63
2022/01/01 07:36:10;;;;;;;12.63;3.25;;;14.40;78.60;;;;;;5096245;27;20067;-64
2022/01/01 07:38:37;;;;;;;15.70;3.10;;;14.30;78.00;;;;;;5133308;27;20835;-65
2022/01/01 07:41:04;;;;;;;17.33;3.17;;;14.40;77.60;;;;;;5132607;27;20060;-62
2022/01/01 07:43:30;;;;;;;10.13;2.10;;;14.30;77.50;;;;;;5097002;27;20103;-66
2022/01/01 07:45:56;;;;;;;12.25;2.30;;;14.30;77.00;;;;;;5113863;27;20099;-64
2022/01/01 07:48:22;;;;;;;;;;;14.30;77.20;;;;;;5114813;27;20617;-62
2022/01/01 07:50:49;;;;;;;20.35;4.10;;;14.20;77.40;;;;;;5113524;27;20066;-65
2022/01/01 07:53:15;;;;;;;;;;;14.20;77.60;;;;;;5114555;27;20591;-65
2022/01/01 07:55:41;;;;;;;12.57;2.35;;;14.10;77.80;;;;;;5113956;27;19971;-60
2022/01/01 07:58:08;;;;;;;;;;;14.00;78.30;;;;;;5134482;27;20119;-62
2022/01/01 08:00:34;;;;;;;6.18;2.45;;;14.10;78.60;;;;;;5147797;27;19970;-62
2022/01/01 08:03:04;;;;;;;10.25;2.78;;;14.00;79.30;;;;;;5132528;27;20519;-63
2022/01/01 08:05:30;;;;;;;17.92;3.25;;;13.90;79.90;;;;;;5132720;27;20068;-61
2022/01/01 08:07:56;;;;;;;;;;;13.90;80.60;;;;;;5097108;27;20118;-65
2022/01/01 08:10:23;;;;;;;10.77;2.45;;;13.90;81.40;;;;;;5132545;27;19970;-65
2022/01/01 08:12:50;;;;;;;14.10;2.53;;;14.20;87.10;;;;;;5110690;28;20578;-64
2022/01/01 08:15:16;;;;;;;10.82;2.42;;;13.90;94.30;;;;;;5093424;28;20051;-60
2022/01/01 08:17:43;;;;;;;14.20;1.90;;;14.00;82.00;;;;;;5110421;28;20072;-63
2022/01/01 08:20:10;;;;;;;15.02;2.50;;;14.00;82.40;;;;;;5110391;28;20068;-61
2022/01/01 08:22:37;;;;;;;9.77;2.40;;;13.90;82.30;;;;;;5111801;28;20563;-62
2022/01/01 08:25:03;;;;;;;;;;;13.90;82.40;;;;;;5093871;28;20072;-61
2022/01/01 08:27:29;;;;;;;34.65;3.58;;;13.80;81.80;;;;;;5093970;28;20096;-61
2022/01/01 08:29:55;;;;;;;;;;;13.80;80.70;;;;;;5110702;28;20572;-62
2022/01/01 08:32:22;;;;;;;25.52;4.28;;;13.90;80.20;;;;;;5112057;28;20051;-62
2022/01/01 08:34:48;;;;;;;21.42;3.33;;;14.00;87.00;;;;;;5111219;28;20084;-60
2022/01/01 08:37:14;;;;;;;;;;;13.70;95.30;;;;;;5110176;28;20129;-61
2022/01/01 08:39:40;;;;;;;27.08;5.18;;;13.80;83.40;;;;;;5110102;28;19961;-61
2022/01/01 08:42:09;;;;;;;;;;;13.80;79.60;;;;;;5111763;28;20094;-62
2022/01/01 08:44:36;;;;;;;14.20;2.97;;;14.20;99.90;;;;;;5144138;27;19980;-65
2022/01/01 08:47:02;;;;;;;;;;;13.80;79.90;;;;;;5093617;28;20104;-62
2022/01/01 08:49:28;;;;;;;15.07;2.65;;;13.80;94.00;;;;;;5109694;28;20337;-60
2022/01/01 08:51:57;;;;;;;;;;;13.80;80.50;;;;;;5110600;28;20428;-63
2022/01/01 08:54:23;;;;;;;16.08;2.78;;;13.60;97.00;;;;;;5092286;28;19957;-61
2022/01/01 08:56:49;;;;;;;;;;;;;;;;;;5093826;28;20159;-64
2022/01/01 08:59:16;;;;;;;15.35;2.35;;;13.70;79.80;;;;;;5109757;28;19976;-64
2022/01/01 09:01:43;;;;;;;14.85;2.88;;;13.80;96.60;;;;;;5143996;27;20019;-62
2022/01/01 09:04:09;;;;;;;26.63;3.67;;;13.80;79.40;;;;;;5108975;28;20092;-64
2022/01/01 09:06:36;;;;;;;;;;;13.80;79.40;;;;;;5110110;28;20543;-63
2022/01/01 09:09:02;;;;;;;36.30;3.50;;;13.80;79.20;;;;;;5109428;28;19956;-61
2022/01/01 09:11:29;;;;;;;35.35;4.03;;;13.70;79.10;;;;;;5111135;27;20079;-61
2022/01/01 09:13:55;;;;;;;;;;;13.80;79.00;;;;;;5113153;27;20087;-61
2022/01/01 09:16:28;;;;;;;40.50;3.83;;;13.80;78.90;;;;;;5131412;27;20014;-62
2022/01/01 09:18:54;;;;;;;25.13;3.95;;;12.80;99.90;;;;;;5131140;27;20442;-60
2022/01/01 09:21:21;;;;;;;22.02;3.20;;;13.20;98.10;;;;;;5095768;27;20111;-63
2022/01/01 09:23:47;;;;;;;;;;;13.70;79.60;;;;;;5113051;27;20489;-63
2022/01/01 09:26:13;;;;;;;32.00;4.00;;;13.70;79.60;;;;;;5131324;27;19995;-63
2022/01/01 09:28:39;;;;;;;;;;;13.70;79.80;;;;;;5112730;27;20159;-60
2022/01/01 09:31:06;;;;;;;11.88;3.15;;;13.60;80.00;;;;;;5112626;27;19975;-64
2022/01/01 09:33:33;;;;;;;16.55;2.60;;;13.60;80.60;;;;;;5095652;27;20434;-62
2022/01/01 09:36:02;;;;;;;12.50;2.15;;;13.60;80.90;;;;;;5111752;27;20163;-62
2022/01/01 09:38:29;;;;;;;7.80;1.85;;;13.60;81.20;;;;;;5112193;27;20127;-63
2022/01/01 09:40:57;;;;;;;9.90;1.83;;;13.60;81.50;;;;;;5111934;27;20082;-62
2022/01/01 09:43:25;;;;;;;11.85;2.30;;;13.60;81.60;;;;;;5112572;27;20110;-62
2022/01/01 09:45:53;;;;;;;11.38;2.63;;;13.60;81.70;;;;;;5112365;27;20076;-64
2022/01/01 09:48:21;;;;;;;10.48;2.00;;;13.60;82.10;;;;;;5110328;27;20553;-60
2022/01/01 09:50:49;;;;;;;8.95;2.45;;;13.60;82.20;;;;;;5112270;28;20103;-62
2022/01/01 09:53:17;;;;;;;9.95;2.35;;;13.60;82.40;;;;;;5130444;27;20433;-60
2022/01/01 09:55:44;;;;;;;10.82;2.45;;;13.60;82.70;;;;;;5111890;27;20155;-64
2022/01/01 09:58:11;;;;;;;8.70;2.80;;;13.60;83.10;;;;;;5131569;27;20422;-62
2022/01/01 10:00:38;;;;;;;11.15;2.78;;;13.60;83.70;;;;;;5111864;27;20072;-64
2022/01/01 10:03:12;;;;;;;7.75;2.53;;;13.60;83.80;;;;;;5111408;28;20091;-58
2022/01/01 10:06:03;;;;;;;11.25;3.08;;;13.60;84.30;;;;;;5130099;27;20078;-61
2022/01/01 10:08:30;;;;;;;9.82;2.97;;;13.60;84.40;;;;;;5100380;28;20083;-63
2022/01/01 10:10:57;;;;;;;12.18;3.25;;;13.60;84.40;;;;;;5111474;28;20427;-62
2022/01/01 10:13:32;;;;;;;12.20;3.28;;;13.50;84.40;;;;;;5111886;27;20617;-63
2022/01/01 10:16:00;;;;;;;14.13;3.63;;;13.50;84.70;;;;;;5111254;28;20071;-64
2022/01/01 10:18:32;;;;;;;14.68;3.55;;;13.50;84.60;;;;;;5094516;28;20091;-62
2022/01/01 10:21:03;;;;;;;18.70;4.82;;;13.40;84.60;;;;;;5111102;28;20075;-62
2022/01/01 10:23:33;;;;;;;15.25;4.85;;;13.40;84.60;;;;;;5094438;28;20547;-62
2022/01/01 10:29:17;;;;;;;13.90;4.05;;;13.40;83.50;;;;;;5129949;28;20075;-60
2022/01/01 10:32:07;;;;;;;13.35;4.05;;;13.40;82.30;;;;;;5110539;28;20450;-62
2022/01/01 10:34:43;;;;;;;17.00;3.63;;;13.30;81.60;;;;;;5130543;28;20078;-61
2022/01/01 10:37:11;;;;;;;14.07;3.50;;;13.30;80.60;;;;;;5094261;28;20118;-59
2022/01/01 10:39:52;;;;;;;12.85;3.30;;;13.30;80.20;;;;;;5112081;28;20124;-61
2022/01/01 10:42:18;;;;;;;13.52;3.85;;;13.30;80.10;;;;;;5111086;28;20174;-64
2022/01/01 10:44:53;;;;;;;13.63;4.18;;;13.30;79.70;;;;;;5111953;28;20113;-64
2022/01/01 10:47:31;;;;;;;11.70;3.22;;;13.30;79.10;;;;;;5110460;28;20097;-60
2022/01/01 10:50:14;;;;;;;11.85;3.33;;;13.20;79.40;;;;;;5111425;28;20074;-62
2022/01/01 10:52:45;;;;;;;15.73;4.03;;;13.20;79.30;;;;;;5097247;28;20078;-57
2022/01/01 10:55:14;;;;;;;14.27;3.80;;;13.20;79.80;;;;;;5128945;28;20122;-60
2022/01/01 10:57:55;;;;;;;13.20;3.40;;;13.20;79.30;;;;;;5111820;28;20447;-64
2022/01/01 11:00:24;;;;;;;11.52;3.15;;;13.10;79.60;;;;;;5145269;27;20156;-64
2022/01/01 11:03:00;;;;;;;11.20;3.78;;;13.10;79.80;;;;;;5130179;28;20431;-58
2022/01/01 11:05:28;;;;;;;13.85;4.00;;;13.00;80.00;;;;;;5129395;28;20060;-62
2022/01/01 11:07:55;;;;;;;12.57;4.43;;;13.00;80.30;;;;;;5130714;28;20104;-61
2022/01/01 11:10:23;;;;;;;10.90;3.88;;;13.00;80.70;;;;;;5111554;28;20538;-64
2022/01/01 11:12:50;;;;;;;16.40;3.95;;;13.80;81.40;;;;;;5130097;28;20112;-60
2022/01/01 11:15:17;;;;;;;10.10;3.35;;;13.00;81.30;;;;;;5130398;28;20064;-63
2022/01/01 11:17:45;;;;;;;9.00;3.53;;;13.00;81.70;;;;;;5130220;28;20074;-63
2022/01/01 11:20:14;;;;;;;10.25;3.08;;;13.00;81.80;;;;;;5130098;28;20159;-67
2022/01/01 11:22:43;;;;;;;11.30;3.10;;;13.10;81.80;;;;;;5129427;28;20087;-58
2022/01/01 11:25:10;;;;;;;7.88;2.60;;;13.10;82.00;;;;;;5129727;27;20068;-62
2022/01/01 11:27:37;;;;;;;11.77;2.97;;;13.10;82.20;;;;;;5097790;27;20072;-62
2022/01/01 11:30:07;;;;;;;12.00;3.08;;;13.10;82.20;;;;;;5097933;27;20063;-61
2022/01/01 11:32:43;;;;;;;9.50;2.85;;;13.10;82.50;;;;;;5098517;27;20072;-66
2022/01/01 11:35:12;;;;;;;10.60;2.72;;;13.20;82.90;;;;;;5114579;27;20072;-64
2022/01/01 11:38:08;;;;;;;13.05;3.00;;;13.10;83.30;;;;;;5133724;27;20167;-62
2022/01/01 11:40:54;;;;;;;10.02;2.60;;;13.20;83.90;;;;;;5095743;27;20770;-63
2022/01/01 11:43:52;;;;;;;26.48;9.43;;;13.20;84.10;;;;;;5115089;27;20231;-63
2022/01/01 11:46:26;;;;;;;;;;;13.20;84.90;;;;;;5115083;27;20139;-61
2022/01/01 11:48:57;;;;;;;15.50;3.20;;;13.20;84.80;;;;;;5133070;27;19964;-63
2022/01/01 11:51:38;;;;;;;14.90;4.45;;;13.20;84.40;;;;;;5113488;27;20068;-63
2022/01/01 11:54:27;;;;;;;12.82;4.93;;;13.10;84.70;;;;;;5147958;27;20067;-62
2022/01/01 11:56:56;;;;;;;12.68;3.83;;;13.10;84.80;;;;;;5113386;27;20137;-61
2022/01/01 11:59:38;;;;;;;13.43;3.80;;;13.00;85.30;;;;;;5114157;27;20158;-62
2022/01/01 12:02:11;;;;;;;14.75;3.22;;;13.00;85.70;;;;;;5096603;27;20107;-60
2022/01/01 12:04:40;;;;;;;8.63;2.95;;;13.00;86.10;;;;;;5133022;27;20099;-65
2022/01/01 12:07:12;;;;;;;15.07;3.25;;;13.00;86.40;;;;;;5113702;27;20072;-61
2022/01/01 12:10:07;;;;;;;13.63;3.20;;;13.00;86.60;;;;;;5114483;27;20072;-62
2022/01/01 12:12:43;;;;;;;11.23;2.88;;;12.90;86.70;;;;;;5110627;28;20188;-61
2022/01/01 12:15:22;;;;;;;17.35;3.08;;;12.90;87.00;;;;;;5110826;28;20136;-63
2022/01/01 12:18:16;;;;;;;12.95;3.00;;;12.90;87.90;;;;;;5110171;28;20574;-64
2022/01/01 12:20:47;;;;;;;14.82;2.75;;;12.90;87.10;;;;;;5104239;28;20091;-61
2022/01/01 12:23:17;;;;;;;13.27;2.65;;;12.90;87.20;;;;;;5111829;28;20091;-61
2022/01/01 12:25:45;;;;;;;16.90;3.50;;;12.90;87.40;;;;;;5112025;28;20110;-60
2022/01/01 12:28:31;;;;;;;14.75;3.42;;;12.90;87.00;;;;;;5111929;28;20088;-58
2022/01/01 12:31:12;;;;;;;14.95;3.25;;;13.00;86.80;;;;;;5145706;27;20158;-60
2022/01/01 12:33:39;;;;;;;13.73;2.83;;;13.00;86.70;;;;;;5110824;28;20219;-60
2022/01/01 12:36:15;;;;;;;13.38;2.85;;;13.00;86.80;;;;;;5110559;28;20076;-66
2022/01/01 12:38:54;;;;;;;10.93;2.75;;;13.10;86.90;;;;;;5110477;28;20079;-62
2022/01/01 12:41:23;;;;;;;17.38;2.92;;;13.00;87.60;;;;;;5109196;28;20145;-60
2022/01/01 12:43:56;;;;;;;15.85;2.97;;;12.90;90.10;;;;;;5109007;28;20547;-60
2022/01/01 12:46:26;;;;;;;17.40;3.20;;;12.90;90.70;;;;;;5111023;28;20094;-60
2022/01/01 12:48:57;;;;;;;13.23;2.67;;;12.80;90.90;;;;;;5109373;28;20084;-62
2022/01/01 12:51:25;;;;;;;17.65;3.10;;;12.80;91.00;;;;;;5109037;28;20076;-60
2022/01/01 12:53:59;;;;;;;14.80;2.45;;;12.80;90.80;;;;;;5109147;28;20068;-63
2022/01/01 12:56:28;;;;;;;15.23;3.13;;;12.80;90.70;;;;;;5078631;28;20079;-55
2022/01/01 12:59:03;;;;;;;14.15;2.83;;;12.80;90.80;;;;;;5109607;28;20072;-65
2022/01/01 13:01:51;;;;;;;12.88;3.08;;;12.80;91.20;;;;;;5144100;27;20095;-62
2022/01/01 13:04:20;;;;;;;17.92;3.20;;;12.70;91.30;;;;;;5109921;28;20131;-62
2022/01/01 13:06:52;;;;;;;15.45;3.17;;;12.70;91.80;;;;;;5109884;28;20084;-61